sensor_id;sensor_type;location;lat;lon;timestamp;temperature;humidity
62555;DHT22;48610;52.144;8.624;2023-04-15T00:01:31;9.20;99.90
62555;DHT22;48610;52.144;8.624;2023-04-15T00:04:34;9.40;99.90
62555;DHT22;48610;52.144;8.624;2023-04-15T00:07:36;9.30;99.90
62555;DHT22;48610;52.144;8.624;2023-04-15T00:10:37;9.30;99.90
62555;DHT22;48610;52.144;8.624;2023-04-15T00:13:38;9.30;99.90
62555;DHT22;48610;52.144;8.624;2023-04-15T00:16:38;9.20;99.90
62555;DHT22;48610;52.144;8.624;2023-04-15T00:19:39;9.40;99.90
62555;DHT22;48610;52.144;8.624;2023-04-15T00:22:40;9.30;99.90
62555;DHT22;48610;52.144;8.624;2023-04-15T00:25:40;9.20;99.90
62555;DHT22;48610;52.144;8.624;2023-04-15T00:28:41;9.10;99.90
62555;DHT22;48610;52.144;8.624;2023-04-15T00:31:41;9.20;99.90
62555;DHT22;48610;52.144;8.624;2023-04-15T00:34:42;9.30;99.90
62555;DHT22;48610;52.144;8.624;2023-04-15T00:37:43;8.90;99.90
62555;DHT22;48610;52.144;8.624;2023-04-15T00:40:43;8.90;99.90
62555;DHT22;48610;52.144;8.624;2023-04-15T00:43:44;8.90;99.90
62555;DHT22;48610;52.144;8.624;2023-04-15T00:46:45;8.90;99.90
62555;DHT22;48610;52.144;8.624;2023-04-15T00:49:46;8.70;99.90
62555;DHT22;48610;52.144;8.624;2023-04-15T00:52:47;8.30;99.90
62555;DHT22;48610;52.144;8.624;2023-04-15T00:55:48;8.30;99.90
62555;DHT22;48610;52.144;8.624;2023-04-15T00:58:50;8.30;99.90
62555;DHT22;48610;52.144;8.624;2023-04-15T01:01:51;8.30;99.90
62555;DHT22;48610;52.144;8.624;2023-04-15T01:04:52;8.20;99.90
62555;DHT22;48610;52.144;8.624;2023-04-15T01:07:52;8.40;99.90
62555;DHT22;48610;52.144;8.624;2023-04-15T01:10:59;8.40;99.90
62555;DHT22;48610;52.144;8.624;2023-04-15T01:14:01;8.60;99.90
62555;DHT22;48610;52.144;8.624;2023-04-15T01:17:02;8.80;99.90
62555;DHT22;48610;52.144;8.624;2023-04-15T01:20:03;8.70;99.90
62555;DHT22;48610;52.144;8.624;2023-04-15T01:23:04;8.80;99.90
62555;DHT22;48610;52.144;8.624;2023-04-15T01:26:06;8.80;99.90
62555;DHT22;48610;52.144;8.624;2023-04-15T01:29:08;8.70;99.90
62555;DHT22;48610;52.144;8.624;2023-04-15T01:32:08;8.80;99.90
62555;DHT22;48610;52.144;8.624;2023-04-15T01:35:10;8.90;99.90
62555;DHT22;48610;52.144;8.624;2023-04-15T01:38:11;8.90;99.90
62555;DHT22;48610;52.144;8.624;2023-04-15T01:41:12;8.80;99.90
62555;DHT22;48610;52.144;8.624;2023-04-15T01:44:13;8.80;99.90
62555;DHT22;48610;52.144;8.624;2023-04-15T01:47:14;8.70;99.90
62555;DHT22;48610;52.144;8.624;2023-04-15T01:50:14;8.80;99.90
62555;DHT22;48610;52.144;8.624;2023-04-15T01:53:15;8.80;99.90
62555;DHT22;48610;52.144;8.624;2023-04-15T01:56:16;8.90;99.90
62555;DHT22;48610;52.144;8.624;2023-04-15T01:59:18;8.80;99.90
62555;DHT22;48610;52.144;8.624;2023-04-15T02:02:18;8.90;99.90
62555;DHT22;48610;52.144;8.624;2023-04-15T02:05:19;8.80;99.90
62555;DHT22;48610;52.144;8.624;2023-04-15T02:08:20;8.70;99.90
62555;DHT22;48610;52.144;8.624;2023-04-15T02:11:20;8.70;99.90
62555;DHT22;48610;52.144;8.624;2023-04-15T02:14:22;8.60;99.90
62555;DHT22;48610;52.144;8.624;2023-04-15T02:17:22;8.70;99.90
62555;DHT22;48610;52.144;8.624;2023-04-15T02:20:23;8.70;99.90
62555;DHT22;48610;52.144;8.624;2023-04-15T02:23:24;8.80;99.90
62555;DHT22;48610;52.144;8.624;2023-04-15T02:26:25;8.70;99.90
62555;DHT22;48610;52.144;8.624;2023-04-15T02:29:25;8.80;99.90
62555;DHT22;48610;52.144;8.624;2023-04-15T02:32:26;8.70;99.90
62555;DHT22;48610;52.144;8.624;2023-04-15T02:35:28;8.60;99.90
62555;DHT22;48610;52.144;8.624;2023-04-15T02:38:28;8.60;99.90
62555;DHT22;48610;52.144;8.624;2023-04-15T02:41:30;8.70;99.90
62555;DHT22;48610;52.144;8.624;2023-04-15T02:44:31;8.80;99.90
62555;DHT22;48610;52.144;8.624;2023-04-15T02:47:34;8.70;99.90
62555;DHT22;48610;52.144;8.624;2023-04-15T02:50:35;8.60;99.90
62555;DHT22;48610;52.144;8.624;2023-04-15T02:53:38;8.60;99.90
62555;DHT22;48610;52.144;8.624;2023-04-15T02:56:39;8.60;99.90
62555;DHT22;48610;52.144;8.624;2023-04-15T02:59:40;8.40;99.90
62555;DHT22;48610;52.144;8.624;2023-04-15T03:02:40;8.30;99.90
62555;DHT22;48610;52.144;8.624;2023-04-15T03:05:43;8.30;99.90
62555;DHT22;48610;52.144;8.624;2023-04-15T03:08:44;8.40;99.90
62555;DHT22;48610;52.144;8.624;2023-04-15T03:11:44;8.30;99.90
62555;DHT22;48610;52.144;8.624;2023-04-15T03:14:45;8.30;99.90
62555;DHT22;48610;52.144;8.624;2023-04-15T03:17:46;8.20;99.90
62555;DHT22;48610;52.144;8.624;2023-04-15T03:20:48;8.20;99.90
62555;DHT22;48610;52.144;8.624;2023-04-15T03:23:49;8.00;99.90
62555;DHT22;48610;52.144;8.624;2023-04-15T03:26:49;8.00;99.90
62555;DHT22;48610;52.144;8.624;2023-04-15T03:29:50;7.80;99.90
62555;DHT22;48610;52.144;8.624;2023-04-15T03:32:51;7.70;99.90
62555;DHT22;48610;52.144;8.624;2023-04-15T03:35:52;7.40;99.90
62555;DHT22;48610;52.144;8.624;2023-04-15T03:38:52;7.50;99.90
62555;DHT22;48610;52.144;8.624;2023-04-15T03:41:53;7.50;99.90
62555;DHT22;48610;52.144;8.624;2023-04-15T03:44:53;7.50;99.90
62555;DHT22;48610;52.144;8.624;2023-04-15T03:47:54;7.40;99.90
62555;DHT22;48610;52.144;8.624;2023-04-15T03:50:54;7.40;99.90
62555;DHT22;48610;52.144;8.624;2023-04-15T03:53:55;7.50;99.90
62555;DHT22;48610;52.144;8.624;2023-04-15T03:56:56;7.50;99.90
62555;DHT22;48610;52.144;8.624;2023-04-15T03:59:57;7.50;99.90
62555;DHT22;48610;52.144;8.624;2023-04-15T04:02:57;7.40;99.90
62555;DHT22;48610;52.144;8.624;2023-04-15T04:05:58;7.30;99.90
62555;DHT22;48610;52.144;8.624;2023-04-15T04:08:58;7.40;99.90
62555;DHT22;48610;52.144;8.624;2023-04-15T04:11:59;7.50;99.90
62555;DHT22;48610;52.144;8.624;2023-04-15T04:15:00;7.60;99.90
62555;DHT22;48610;52.144;8.624;2023-04-15T04:18:01;7.50;99.90
62555;DHT22;48610;52.144;8.624;2023-04-15T04:21:01;7.30;99.90
62555;DHT22;48610;52.144;8.624;2023-04-15T04:24:02;7.10;99.90
62555;DHT22;48610;52.144;8.624;2023-04-15T04:27:02;7.20;99.90
62555;DHT22;48610;52.144;8.624;2023-04-15T04:30:04;7.40;99.90
62555;DHT22;48610;52.144;8.624;2023-04-15T04:33:06;7.40;99.90
62555;DHT22;48610;52.144;8.624;2023-04-15T04:36:06;7.60;99.90
62555;DHT22;48610;52.144;8.624;2023-04-15T04:39:07;7.50;99.90
62555;DHT22;48610;52.144;8.624;2023-04-15T04:42:08;7.60;99.90
62555;DHT22;48610;52.144;8.624;2023-04-15T04:45:08;7.60;99.90
62555;DHT22;48610;52.144;8.624;2023-04-15T04:48:09;7.50;99.90
62555;DHT22;48610;52.144;8.624;2023-04-15T04:51:10;7.60;99.90
62555;DHT22;48610;52.144;8.624;2023-04-15T04:54:11;7.70;99.90
62555;DHT22;48610;52.144;8.624;2023-04-15T04:57:12;7.70;99.90
62555;DHT22;48610;52.144;8.624;2023-04-15T05:00:13;7.70;99.90
62555;DHT22;48610;52.144;8.624;2023-04-15T05:03:14;7.80;99.90
62555;DHT22;48610;52.144;8.624;2023-04-15T05:06:14;7.70;99.90
62555;DHT22;48610;52.144;8.624;2023-04-15T05:09:15;7.70;99.90
62555;DHT22;48610;52.144;8.624;2023-04-15T05:12:16;7.50;99.90
62555;DHT22;48610;52.144;8.624;2023-04-15T05:15:17;7.70;99.90
62555;DHT22;48610;52.144;8.624;2023-04-15T05:18:18;7.70;99.90
62555;DHT22;48610;52.144;8.624;2023-04-15T05:21:19;7.80;99.90
62555;DHT22;48610;52.144;8.624;2023-04-15T05:24:20;7.70;99.90
62555;DHT22;48610;52.144;8.624;2023-04-15T05:27:20;7.80;99.90
62555;DHT22;48610;52.144;8.624;2023-04-15T05:30:22;7.80;99.90
62555;DHT22;48610;52.144;8.624;2023-04-15T05:33:22;7.70;99.90
62555;DHT22;48610;52.144;8.624;2023-04-15T05:36:23;7.70;99.90
62555;DHT22;48610;52.144;8.624;2023-04-15T05:39:24;7.80;99.90
62555;DHT22;48610;52.144;8.624;2023-04-15T05:42:24;7.80;99.90
62555;DHT22;48610;52.144;8.624;2023-04-15T05:45:25;7.90;99.90
62555;DHT22;48610;52.144;8.624;2023-04-15T05:48:26;8.00;99.90
62555;DHT22;48610;52.144;8.624;2023-04-15T05:51:27;8.00;99.90
62555;DHT22;48610;52.144;8.624;2023-04-15T05:54:27;8.00;99.90
62555;DHT22;48610;52.144;8.624;2023-04-15T05:57:28;8.00;99.90
62555;DHT22;48610;52.144;8.624;2023-04-15T06:00:28;8.10;99.90
62555;DHT22;48610;52.144;8.624;2023-04-15T06:03:29;8.10;99.90
62555;DHT22;48610;52.144;8.624;2023-04-15T06:06:29;8.10;99.90
62555;DHT22;48610;52.144;8.624;2023-04-15T06:09:31;8.10;99.90
62555;DHT22;48610;52.144;8.624;2023-04-15T06:12:32;8.10;99.90
62555;DHT22;48610;52.144;8.624;2023-04-15T06:15:32;8.20;99.90
62555;DHT22;48610;52.144;8.624;2023-04-15T06:18:33;8.20;99.90
62555;DHT22;48610;52.144;8.624;2023-04-15T06:21:34;8.20;99.90
62555;DHT22;48610;52.144;8.624;2023-04-15T06:24:34;8.10;99.90
62555;DHT22;48610;52.144;8.624;2023-04-15T06:27:36;8.20;99.90
62555;DHT22;48610;52.144;8.624;2023-04-15T06:30:37;8.10;99.90
62555;DHT22;48610;52.144;8.624;2023-04-15T06:33:38;8.00;99.90
62555;DHT22;48610;52.144;8.624;2023-04-15T06:36:39;7.90;99.90
62555;DHT22;48610;52.144;8.624;2023-04-15T06:39:39;7.90;99.90
62555;DHT22;48610;52.144;8.624;2023-04-15T06:42:40;7.90;99.90
62555;DHT22;48610;52.144;8.624;2023-04-15T06:45:41;7.90;99.90
62555;DHT22;48610;52.144;8.624;2023-04-15T06:48:41;7.70;99.90
62555;DHT22;48610;52.144;8.624;2023-04-15T06:51:42;7.80;99.90
62555;DHT22;48610;52.144;8.624;2023-04-15T06:54:42;7.80;99.90
62555;DHT22;48610;52.144;8.624;2023-04-15T06:57:43;7.80;99.90
62555;DHT22;48610;52.144;8.624;2023-04-15T07:00:44;7.70;99.90
62555;DHT22;48610;52.144;8.624;2023-04-15T07:03:44;7.70;99.90
62555;DHT22;48610;52.144;8.624;2023-04-15T07:06:45;7.90;99.90
62555;DHT22;48610;52.144;8.624;2023-04-15T07:09:46;7.80;99.90
62555;DHT22;48610;52.144;8.624;2023-04-15T07:12:47;7.80;99.90
62555;DHT22;48610;52.144;8.624;2023-04-15T07:15:48;7.90;99.90
62555;DHT22;48610;52.144;8.624;2023-04-15T07:18:48;7.80;99.90
62555;DHT22;48610;52.144;8.624;2023-04-15T07:21:51;7.80;99.90
62555;DHT22;48610;52.144;8.624;2023-04-15T07:24:52;7.80;99.90
62555;DHT22;48610;52.144;8.624;2023-04-15T07:27:53;7.80;99.90
62555;DHT22;48610;52.144;8.624;2023-04-15T07:30:54;7.80;99.90
62555;DHT22;48610;52.144;8.624;2023-04-15T07:33:56;7.80;99.90
62555;DHT22;48610;52.144;8.624;2023-04-15T07:36:57;7.80;99.90
62555;DHT22;48610;52.144;8.624;2023-04-15T07:39:58;7.80;99.90
62555;DHT22;48610;52.144;8.624;2023-04-15T07:42:58;7.90;99.90
62555;DHT22;48610;52.144;8.624;2023-04-15T07:45:59;8.00;99.90
62555;DHT22;48610;52.144;8.624;2023-04-15T07:49:00;8.00;99.90
62555;DHT22;48610;52.144;8.624;2023-04-15T07:52:00;8.10;99.90
62555;DHT22;48610;52.144;8.624;2023-04-15T07:55:01;8.10;99.90
62555;DHT22;48610;52.144;8.624;2023-04-15T07:58:01;8.30;99.90
62555;DHT22;48610;52.144;8.624;2023-04-15T08:01:03;8.20;99.90
62555;DHT22;48610;52.144;8.624;2023-04-15T08:04:04;8.30;99.90
62555;DHT22;48610;52.144;8.624;2023-04-15T08:07:05;8.30;99.90
62555;DHT22;48610;52.144;8.624;2023-04-15T08:10:06;8.40;99.90
62555;DHT22;48610;52.144;8.624;2023-04-15T08:13:07;8.30;99.90
62555;DHT22;48610;52.144;8.624;2023-04-15T08:19:17;8.30;99.90
62555;DHT22;48610;52.144;8.624;2023-04-15T08:22:18;8.40;99.90
62555;DHT22;48610;52.144;8.624;2023-04-15T08:25:19;8.40;99.90
62555;DHT22;48610;52.144;8.624;2023-04-15T08:28:20;8.40;99.90
62555;DHT22;48610;52.144;8.624;2023-04-15T08:31:20;8.50;99.90
62555;DHT22;48610;52.144;8.624;2023-04-15T08:34:22;8.50;99.90
62555;DHT22;48610;52.144;8.624;2023-04-15T08:37:23;8.60;99.90
62555;DHT22;48610;52.144;8.624;2023-04-15T08:40:28;8.50;99.90
62555;DHT22;48610;52.144;8.624;2023-04-15T08:43:41;8.60;99.90
62555;DHT22;48610;52.144;8.624;2023-04-15T08:46:42;8.60;99.90
62555;DHT22;48610;52.144;8.624;2023-04-15T08:49:43;8.60;99.90
62555;DHT22;48610;52.144;8.624;2023-04-15T08:52:44;8.70;99.90
62555;DHT22;48610;52.144;8.624;2023-04-15T08:55:46;8.70;99.90
62555;DHT22;48610;52.144;8.624;2023-04-15T08:58:51;8.80;99.90
62555;DHT22;48610;52.144;8.624;2023-04-15T09:01:52;8.80;99.90
62555;DHT22;48610;52.144;8.624;2023-04-15T09:04:54;8.80;99.90
62555;DHT22;48610;52.144;8.624;2023-04-15T09:07:56;8.70;99.90
62555;DHT22;48610;52.144;8.624;2023-04-15T09:10:56;8.60;99.90
62555;DHT22;48610;52.144;8.624;2023-04-15T09:13:57;8.70;99.90
62555;DHT22;48610;52.144;8.624;2023-04-15T09:16:59;8.70;99.90
62555;DHT22;48610;52.144;8.624;2023-04-15T09:20:16;8.70;99.90
62555;DHT22;48610;52.144;8.624;2023-04-15T09:23:18;8.60;99.90
62555;DHT22;48610;52.144;8.624;2023-04-15T09:26:18;8.60;99.90
62555;DHT22;48610;52.144;8.624;2023-04-15T09:29:19;8.60;99.90
62555;DHT22;48610;52.144;8.624;2023-04-15T09:32:23;8.60;99.90
62555;DHT22;48610;52.144;8.624;2023-04-15T09:35:25;8.80;99.90
62555;DHT22;48610;52.144;8.624;2023-04-15T09:38:27;8.80;99.90
62555;DHT22;48610;52.144;8.624;2023-04-15T09:41:28;8.90;99.90
62555;DHT22;48610;52.144;8.624;2023-04-15T09:44:28;8.90;99.90
62555;DHT22;48610;52.144;8.624;2023-04-15T09:47:30;8.80;99.90
62555;DHT22;48610;52.144;8.624;2023-04-15T09:50:40;8.90;99.90
62555;DHT22;48610;52.144;8.624;2023-04-15T09:53:40;8.90;99.90
62555;DHT22;48610;52.144;8.624;2023-04-15T09:56:41;8.90;99.90
62555;DHT22;48610;52.144;8.624;2023-04-15T09:59:41;8.80;99.90
62555;DHT22;48610;52.144;8.624;2023-04-15T10:02:42;8.80;99.90
62555;DHT22;48610;52.144;8.624;2023-04-15T10:05:43;8.80;99.90
62555;DHT22;48610;52.144;8.624;2023-04-15T10:08:45;8.80;99.90
62555;DHT22;48610;52.144;8.624;2023-04-15T10:11:48;8.80;99.90
62555;DHT22;48610;52.144;8.624;2023-04-15T10:14:57;8.90;99.90
62555;DHT22;48610;52.144;8.624;2023-04-15T10:17:59;8.90;99.90
62555;DHT22;48610;52.144;8.624;2023-04-15T10:21:00;9.00;99.90
62555;DHT22;48610;52.144;8.624;2023-04-15T10:24:02;9.00;99.90
62555;DHT22;48610;52.144;8.624;2023-04-15T10:27:03;9.00;99.90
62555;DHT22;48610;52.144;8.624;2023-04-15T10:30:05;9.00;99.90
62555;DHT22;48610;52.144;8.624;2023-04-15T10:33:08;9.00;99.90
62555;DHT22;48610;52.144;8.624;2023-04-15T10:36:09;9.00;99.90
62555;DHT22;48610;52.144;8.624;2023-04-15T10:42:33;9.00;99.90
62555;DHT22;48610;52.144;8.624;2023-04-15T10:45:36;9.10;99.90
62555;DHT22;48610;52.144;8.624;2023-04-15T10:48:37;9.20;99.90
62555;DHT22;48610;52.144;8.624;2023-04-15T10:51:40;9.10;99.90
62555;DHT22;48610;52.144;8.624;2023-04-15T10:54:41;9.10;99.90
62555;DHT22;48610;52.144;8.624;2023-04-15T10:57:42;9.10;99.90
62555;DHT22;48610;52.144;8.624;2023-04-15T11:00:49;9.10;99.90
62555;DHT22;48610;52.144;8.624;2023-04-15T11:03:51;9.10;99.90
62555;DHT22;48610;52.144;8.624;2023-04-15T11:07:04;9.10;99.90
62555;DHT22;48610;52.144;8.624;2023-04-15T11:13:33;9.30;99.90
62555;DHT22;48610;52.144;8.624;2023-04-15T11:16:41;9.30;99.90
62555;DHT22;48610;52.144;8.624;2023-04-15T11:19:44;9.40;99.90
62555;DHT22;48610;52.144;8.624;2023-04-15T11:22:51;9.30;99.90
62555;DHT22;48610;52.144;8.624;2023-04-15T11:25:54;9.20;99.90
62555;DHT22;48610;52.144;8.624;2023-04-15T11:28:56;9.20;99.90
62555;DHT22;48610;52.144;8.624;2023-04-15T11:32:07;9.40;99.90
62555;DHT22;48610;52.144;8.624;2023-04-15T11:35:08;9.30;99.90
62555;DHT22;48610;52.144;8.624;2023-04-15T11:38:11;9.40;99.90
62555;DHT22;48610;52.144;8.624;2023-04-15T11:41:12;9.40;99.90
62555;DHT22;48610;52.144;8.624;2023-04-15T11:44:17;9.50;99.90
62555;DHT22;48610;52.144;8.624;2023-04-15T11:47:24;9.30;99.90
62555;DHT22;48610;52.144;8.624;2023-04-15T11:50:24;9.30;99.90
62555;DHT22;48610;52.144;8.624;2023-04-15T11:53:47;9.20;99.90
62555;DHT22;48610;52.144;8.624;2023-04-15T11:56:51;9.20;99.90
62555;DHT22;48610;52.144;8.624;2023-04-15T11:59:54;9.20;99.90
62555;DHT22;48610;52.144;8.624;2023-04-15T12:03:17;9.20;99.90
62555;DHT22;48610;52.144;8.624;2023-04-15T12:06:23;9.20;99.90
62555;DHT22;48610;52.144;8.624;2023-04-15T12:09:24;9.20;99.90
62555;DHT22;48610;52.144;8.624;2023-04-15T12:12:28;9.20;99.90
62555;DHT22;48610;52.144;8.624;2023-04-15T12:15:28;9.30;99.90
62555;DHT22;48610;52.144;8.624;2023-04-15T12:18:29;9.30;99.90
62555;DHT22;48610;52.144;8.624;2023-04-15T12:21:34;9.40;99.90
62555;DHT22;48610;52.144;8.624;2023-04-15T12:24:36;9.40;99.90
62555;DHT22;48610;52.144;8.624;2023-04-15T12:27:37;9.40;99.90
62555;DHT22;48610;52.144;8.624;2023-04-15T12:30:49;9.40;99.90
62555;DHT22;48610;52.144;8.624;2023-04-15T12:33:50;9.50;99.90
62555;DHT22;48610;52.144;8.624;2023-04-15T12:36:51;9.40;99.90
62555;DHT22;48610;52.144;8.624;2023-04-15T12:39:52;9.40;99.90
62555;DHT22;48610;52.144;8.624;2023-04-15T12:42:53;9.30;99.90
62555;DHT22;48610;52.144;8.624;2023-04-15T12:45:55;9.30;99.90
62555;DHT22;48610;52.144;8.624;2023-04-15T12:48:56;9.20;99.90
62555;DHT22;48610;52.144;8.624;2023-04-15T12:51:58;9.30;99.90
62555;DHT22;48610;52.144;8.624;2023-04-15T12:55:00;9.30;99.90
62555;DHT22;48610;52.144;8.624;2023-04-15T12:58:01;9.30;99.90
62555;DHT22;48610;52.144;8.624;2023-04-15T13:01:02;9.40;99.90
62555;DHT22;48610;52.144;8.624;2023-04-15T13:04:03;9.40;99.90
62555;DHT22;48610;52.144;8.624;2023-04-15T13:07:03;9.40;99.90
62555;DHT22;48610;52.144;8.624;2023-04-15T13:10:04;9.50;99.90
62555;DHT22;48610;52.144;8.624;2023-04-15T13:13:05;9.50;99.90
62555;DHT22;48610;52.144;8.624;2023-04-15T13:16:06;9.50;99.90
62555;DHT22;48610;52.144;8.624;2023-04-15T13:19:06;9.50;99.90
62555;DHT22;48610;52.144;8.624;2023-04-15T13:22:07;9.50;99.90
62555;DHT22;48610;52.144;8.624;2023-04-15T13:25:08;9.50;99.90
62555;DHT22;48610;52.144;8.624;2023-04-15T13:28:10;9.60;99.90
62555;DHT22;48610;52.144;8.624;2023-04-15T13:31:11;9.60;99.90
62555;DHT22;48610;52.144;8.624;2023-04-15T13:34:12;9.60;99.90
62555;DHT22;48610;52.144;8.624;2023-04-15T13:37:13;9.60;99.90
62555;DHT22;48610;52.144;8.624;2023-04-15T13:40:13;9.60;99.90
62555;DHT22;48610;52.144;8.624;2023-04-15T13:43:14;9.60;99.90
62555;DHT22;48610;52.144;8.624;2023-04-15T13:46:15;9.50;99.90
62555;DHT22;48610;52.144;8.624;2023-04-15T13:49:15;9.50;99.90
62555;DHT22;48610;52.144;8.624;2023-04-15T13:52:16;9.60;99.90
62555;DHT22;48610;52.144;8.624;2023-04-15T13:55:17;9.50;99.90
62555;DHT22;48610;52.144;8.624;2023-04-15T13:58:17;9.60;99.90
62555;DHT22;48610;52.144;8.624;2023-04-15T14:01:18;9.60;99.90
62555;DHT22;48610;52.144;8.624;2023-04-15T14:04:18;9.60;99.90
62555;DHT22;48610;52.144;8.624;2023-04-15T14:07:19;9.60;99.90
62555;DHT22;48610;52.144;8.624;2023-04-15T14:10:20;9.60;99.90
62555;DHT22;48610;52.144;8.624;2023-04-15T14:13:20;9.60;99.90
62555;DHT22;48610;52.144;8.624;2023-04-15T14:16:21;9.70;99.90
62555;DHT22;48610;52.144;8.624;2023-04-15T14:19:22;9.70;99.90
62555;DHT22;48610;52.144;8.624;2023-04-15T14:22:23;9.80;99.90
62555;DHT22;48610;52.144;8.624;2023-04-15T14:25:24;9.70;99.90
62555;DHT22;48610;52.144;8.624;2023-04-15T14:28:26;9.80;99.90
62555;DHT22;48610;52.144;8.624;2023-04-15T14:31:27;9.80;99.90
62555;DHT22;48610;52.144;8.624;2023-04-15T14:34:27;9.70;99.90
62555;DHT22;48610;52.144;8.624;2023-04-15T14:37:28;9.80;99.90
62555;DHT22;48610;52.144;8.624;2023-04-15T14:40:29;9.80;99.90
62555;DHT22;48610;52.144;8.624;2023-04-15T14:43:29;9.80;99.90
62555;DHT22;48610;52.144;8.624;2023-04-15T14:56:22;9.80;99.90
